Time;durP1;ratioP1;P1;durP2;ratioP2;P2;SDS_P1;SDS_P2;PMS_P1;PMS_P2;Temp;Humidity;BMP_temperature;BMP_pressure;BME280_temperature;BME280_humidity;BME280_pressure;Samples;Min_cycle;Max_cycle;Signal;HPM_P1;HPM_P2
2020/12/17 00:00:25;;;;;;;28.90;14.77;;;7.50;99.90;;;;;;4977707;28;20041;-71
2020/12/17 00:02:53;;;;;;;25.17;13.50;;;7.50;99.90;;;;;;4992647;28;20399;-71
2020/12/17 00:05:21;;;;;;;30.20;15.38;;;7.50;99.90;;;;;;4992782;28;20023;-71
2020/12/17 00:07:48;;;;;;;26.08;13.25;;;7.50;99.90;;;;;;4992864;28;20054;-71
2020/12/17 00:10:17;;;;;;;31.95;14.45;;;7.40;99.90;;;;;;4978131;28;20073;-71
2020/12/17 00:12:46;;;;;;;30.10;14.73;;;7.40;99.90;;;;;;4978265;28;20026;-71
2020/12/17 00:15:19;;;;;;;31.88;14.48;;;7.40;99.90;;;;;;4977529;28;20031;-71
2020/12/17 00:17:52;;;;;;;29.50;12.88;;;7.40;99.90;;;;;;4977558;28;20038;-71
2020/12/17 00:20:22;;;;;;;27.70;13.43;;;7.50;99.90;;;;;;4977932;28;20063;-71
2020/12/17 00:22:50;;;;;;;30.60;14.23;;;7.50;99.90;;;;;;4992586;28;20042;-71
2020/12/17 00:25:18;;;;;;;24.50;12.77;;;7.50;99.90;;;;;;4977982;28;20033;-71
2020/12/17 00:27:46;;;;;;;27.92;14.00;;;7.50;99.90;;;;;;4977988;28;20019;-71
2020/12/17 00:30:16;;;;;;;31.85;13.95;;;7.50;99.90;;;;;;4977310;28;20426;-71
2020/12/17 00:32:44;;;;;;;22.30;12.23;;;7.50;99.90;;;;;;4977348;28;20039;-71
2020/12/17 00:35:13;;;;;;;27.65;13.13;;;7.50;99.90;;;;;;4977375;28;20027;-71
2020/12/17 00:37:41;;;;;;;26.23;12.15;;;7.60;99.90;;;;;;4977536;28;20030;-71
2020/12/17 00:40:14;;;;;;;25.38;13.02;;;7.60;99.90;;;;;;4977820;28;20026;-71
2020/12/17 00:42:43;;;;;;;27.90;14.40;;;7.60;99.90;;;;;;4977461;28;20023;-71
2020/12/17 00:45:12;;;;;;;26.50;14.15;;;7.70;99.90;;;;;;4977170;28;20027;-71
2020/12/17 00:47:39;;;;;;;25.35;12.13;;;7.70;99.90;;;;;;4977302;28;20038;-71
2020/12/17 00:50:09;;;;;;;25.40;13.05;;;7.70;99.90;;;;;;4979411;28;20031;-71
2020/12/17 00:52:37;;;;;;;24.10;12.48;;;7.80;99.90;;;;;;4981063;28;20019;-71
2020/12/17 00:55:05;;;;;;;25.85;12.93;;;7.80;99.90;;;;;;4980785;28;20030;-71
2020/12/17 00:57:33;;;;;;;26.55;13.93;;;7.90;99.90;;;;;;4981259;28;20035;-71
2020/12/17 01:00:00;;;;;;;25.30;12.20;;;7.90;99.90;;;;;;4980729;28;20027;-71
2020/12/17 01:02:27;;;;;;;24.10;12.85;;;7.90;99.90;;;;;;4995757;28;20039;-71
2020/12/17 01:04:55;;;;;;;24.77;12.88;;;8.00;99.90;;;;;;4980620;28;20027;-71
2020/12/17 01:07:23;;;;;;;27.73;13.60;;;8.00;99.90;;;;;;4980611;28;20023;-71
2020/12/17 01:09:50;;;;;;;27.17;12.38;;;8.00;99.90;;;;;;4980781;28;20031;-71
2020/12/17 01:12:18;;;;;;;23.42;12.18;;;8.00;99.90;;;;;;4980718;28;20023;-71
2020/12/17 01:14:46;;;;;;;24.17;12.68;;;8.00;99.90;;;;;;4980464;28;20033;-71
2020/12/17 01:17:15;;;;;;;26.92;13.02;;;8.00;99.90;;;;;;4980978;28;20031;-71
2020/12/17 01:19:42;;;;;;;24.15;12.55;;;8.00;99.90;;;;;;4980243;28;20030;-71
2020/12/17 01:22:10;;;;;;;22.77;11.68;;;8.00;99.90;;;;;;4979453;28;20330;-71
2020/12/17 01:24:38;;;;;;;27.95;13.38;;;8.00;99.90;;;;;;4995437;28;20027;-71
2020/12/17 01:27:06;;;;;;;25.15;12.18;;;8.00;99.90;;;;;;4980242;28;20023;-71
2020/12/17 01:29:33;;;;;;;25.90;12.98;;;8.10;99.90;;;;;;4995357;28;20312;-71
2020/12/17 01:32:00;;;;;;;23.33;11.15;;;8.10;99.90;;;;;;4995349;28;20030;-71
2020/12/17 01:34:28;;;;;;;25.17;10.88;;;8.10;99.90;;;;;;4980078;28;20035;-71
2020/12/17 01:36:56;;;;;;;20.80;10.43;;;8.10;99.90;;;;;;4980266;28;20049;-71
2020/12/17 01:39:25;;;;;;;24.55;12.80;;;8.10;99.90;;;;;;4980210;28;20481;-71
2020/12/17 01:41:54;;;;;;;23.33;10.35;;;8.10;99.90;;;;;;4979929;28;20030;-71
2020/12/17 01:44:23;;;;;;;29.55;13.35;;;8.10;99.90;;;;;;4995054;28;20022;-71
2020/12/17 01:46:52;;;;;;;29.95;14.10;;;8.10;99.90;;;;;;4995004;28;20042;-71
2020/12/17 01:49:25;;;;;;;24.83;13.07;;;8.20;99.90;;;;;;4980301;28;20033;-71
2020/12/17 01:51:54;;;;;;;26.55;13.32;;;8.10;99.90;;;;;;4979837;28;20419;-71
2020/12/17 01:54:22;;;;;;;24.10;12.35;;;8.10;99.90;;;;;;4980044;28;20071;-71
2020/12/17 01:57:01;;;;;;;26.42;12.48;;;8.10;99.90;;;;;;4979364;28;20074;-71
2020/12/17 01:59:35;;;;;;;25.85;12.40;;;8.10;99.90;;;;;;4979801;28;20031;-71
2020/12/17 02:02:04;;;;;;;25.30;12.60;;;8.10;99.90;;;;;;4979329;28;20050;-71
2020/12/17 02:04:32;;;;;;;22.98;12.18;;;8.10;99.90;;;;;;4979553;28;20031;-71
2020/12/17 02:07:01;;;;;;;27.98;13.38;;;8.10;99.90;;;;;;4979823;28;20023;-71
2020/12/17 02:09:29;;;;;;;23.90;13.10;;;8.10;99.90;;;;;;4979484;28;20027;-71
2020/12/17 02:11:58;;;;;;;23.50;12.75;;;8.00;99.90;;;;;;4979606;28;20034;-71
2020/12/17 02:14:26;;;;;;;26.40;13.63;;;8.00;99.90;;;;;;4979848;28;20057;-70
2020/12/17 02:16:54;;;;;;;24.70;12.10;;;8.00;99.90;;;;;;4994526;28;20034;-71
2020/12/17 02:19:22;;;;;;;27.38;12.93;;;8.00;99.90;;;;;;4979750;28;20019;-71
2020/12/17 02:21:50;;;;;;;25.08;13.35;;;8.00;99.90;;;;;;4979441;28;20430;-71
2020/12/17 02:24:25;;;;;;;26.70;12.23;;;8.00;99.90;;;;;;4979720;28;20073;-71
2020/12/17 02:26:53;;;;;;;19.23;9.90;;;8.00;99.90;;;;;;4994293;28;20023;-71
2020/12/17 02:29:21;;;;;;;27.77;13.15;;;8.00;99.90;;;;;;4978957;28;20022;-71
2020/12/17 02:31:48;;;;;;;28.25;14.13;;;8.00;99.90;;;;;;4979245;28;20051;-71
2020/12/17 02:34:16;;;;;;;26.05;13.10;;;8.00;99.90;;;;;;4979028;28;20053;-71
2020/12/17 02:36:44;;;;;;;21.98;11.60;;;8.00;99.90;;;;;;4979009;28;20072;-71
2020/12/17 02:39:12;;;;;;;27.77;13.07;;;8.00;99.90;;;;;;4979313;28;20030;-71
2020/12/17 02:41:40;;;;;;;22.90;12.25;;;8.00;99.90;;;;;;4979052;28;20022;-71
2020/12/17 02:44:08;;;;;;;28.95;14.05;;;8.00;99.90;;;;;;4978669;28;20027;-71
2020/12/17 02:46:35;;;;;;;28.17;14.13;;;8.00;99.90;;;;;;4978789;28;20082;-71
2020/12/17 02:49:03;;;;;;;28.48;14.95;;;8.00;99.90;;;;;;4993811;28;20437;-71
2020/12/17 02:51:31;;;;;;;29.48;13.35;;;8.00;99.90;;;;;;4979374;28;20416;-70
2020/12/17 02:53:58;;;;;;;26.65;12.63;;;8.00;99.90;;;;;;4979168;28;20109;-70
2020/12/17 02:56:26;;;;;;;25.48;12.48;;;8.00;99.90;;;;;;4978605;28;20019;-70
2020/12/17 02:58:53;;;;;;;28.83;12.30;;;8.00;99.90;;;;;;4978897;28;20027;-71
2020/12/17 03:01:20;;;;;;;24.10;12.82;;;8.00;99.90;;;;;;4993591;28;20034;-71
2020/12/17 03:03:48;;;;;;;24.23;12.95;;;8.10;99.90;;;;;;4978299;28;20043;-70
2020/12/17 03:06:16;;;;;;;24.55;13.23;;;8.00;99.90;;;;;;4978395;28;20023;-71
2020/12/17 03:08:43;;;;;;;26.30;13.88;;;8.00;99.90;;;;;;4979146;28;20023;-71
2020/12/17 03:11:11;;;;;;;23.63;13.52;;;8.00;99.90;;;;;;4978891;28;20023;-71
2020/12/17 03:13:38;;;;;;;23.60;11.60;;;8.00;99.90;;;;;;4978268;28;20058;-70
2020/12/17 03:16:06;;;;;;;28.80;13.25;;;8.00;99.90;;;;;;4978431;28;20026;-71
2020/12/17 03:18:34;;;;;;;28.13;13.98;;;8.00;99.90;;;;;;4978175;28;20023;-70
2020/12/17 03:21:02;;;;;;;26.38;13.77;;;8.00;99.90;;;;;;4978157;28;20331;-71
2020/12/17 03:23:29;;;;;;;22.98;12.32;;;8.00;99.90;;;;;;4978709;28;20026;-70
2020/12/17 03:25:57;;;;;;;26.05;13.98;;;8.00;99.90;;;;;;4978301;28;20015;-71
2020/12/17 03:28:24;;;;;;;21.90;12.13;;;8.00;99.90;;;;;;4978001;28;20018;-71
2020/12/17 03:30:52;;;;;;;25.17;12.25;;;8.00;99.90;;;;;;4978093;28;20019;-71
2020/12/17 03:33:19;;;;;;;24.95;12.30;;;7.90;99.90;;;;;;4978538;28;20157;-71
2020/12/17 03:35:47;;;;;;;23.63;13.57;;;7.90;99.90;;;;;;4978008;28;20088;-71
2020/12/17 03:38:16;;;;;;;26.23;12.73;;;7.90;99.90;;;;;;4978076;28;20022;-71
2020/12/17 03:40:44;;;;;;;31.00;14.45;;;7.90;99.90;;;;;;4978083;28;20407;-71
2020/12/17 03:43:12;;;;;;;24.70;13.13;;;7.90;99.90;;;;;;4977843;28;20110;-71
2020/12/17 03:45:39;;;;;;;24.15;12.57;;;7.80;99.90;;;;;;4977741;28;20090;-71
2020/12/17 03:48:07;;;;;;;24.33;11.77;;;7.80;99.90;;;;;;4977012;28;20434;-71
2020/12/17 03:50:34;;;;;;;27.35;12.20;;;7.80;99.90;;;;;;4976803;28;20035;-70
2020/12/17 03:53:02;;;;;;;26.15;13.27;;;7.70;99.90;;;;;;4976778;28;20034;-71
2020/12/17 03:55:29;;;;;;;24.23;12.23;;;7.70;99.90;;;;;;4978022;28;20023;-70
2020/12/17 03:57:57;;;;;;;27.75;14.25;;;7.70;99.90;;;;;;4978651;28;20027;-71
2020/12/17 04:00:24;;;;;;;24.52;12.73;;;7.60;99.90;;;;;;4977521;28;20106;-70
2020/12/17 04:02:52;;;;;;;26.25;12.43;;;7.60;99.90;;;;;;4992612;28;20385;-71
2020/12/17 04:05:19;;;;;;;25.83;12.68;;;7.50;99.90;;;;;;4977667;28;20047;-71
2020/12/17 04:07:47;;;;;;;26.73;12.43;;;7.50;99.90;;;;;;4978331;28;20062;-71
2020/12/17 04:10:14;;;;;;;25.42;13.27;;;7.50;99.90;;;;;;4977530;28;20308;-70
2020/12/17 04:12:42;;;;;;;23.63;12.30;;;7.50;99.90;;;;;;4978147;28;20030;-70
2020/12/17 04:15:09;;;;;;;22.33;11.73;;;7.50;99.90;;;;;;4978029;28;20031;-70
2020/12/17 04:17:37;;;;;;;24.38;13.18;;;7.50;99.90;;;;;;4978107;28;20022;-70
2020/12/17 04:20:04;;;;;;;23.05;12.20;;;7.50;99.90;;;;;;4977731;28;20485;-70
2020/12/17 04:22:32;;;;;;;22.38;12.20;;;7.60;99.90;;;;;;4977475;28;20122;-70
2020/12/17 04:25:00;;;;;;;23.27;12.93;;;7.60;99.90;;;;;;4978931;28;20105;-70
2020/12/17 04:27:28;;;;;;;21.42;11.75;;;7.60;99.90;;;;;;4981808;28;20030;-71
2020/12/17 04:29:56;;;;;;;26.05;12.07;;;7.70;99.90;;;;;;4981234;28;20030;-71
2020/12/17 04:32:24;;;;;;;25.25;12.80;;;7.70;99.90;;;;;;4981344;28;20034;-71
2020/12/17 04:34:52;;;;;;;22.52;11.98;;;7.70;99.90;;;;;;4981138;28;20416;-71
2020/12/17 04:37:20;;;;;;;23.05;11.73;;;7.70;99.90;;;;;;4981746;28;20031;-71
2020/12/17 04:39:48;;;;;;;19.90;11.07;;;7.70;99.90;;;;;;4981371;28;20109;-71
2020/12/17 04:42:16;;;;;;;20.08;11.25;;;7.80;99.90;;;;;;4981793;28;20027;-71
2020/12/17 04:44:44;;;;;;;23.40;11.50;;;7.80;99.90;;;;;;4981211;28;20023;-71
2020/12/17 04:47:20;;;;;;;25.92;11.57;;;7.90;99.90;;;;;;4980994;28;20035;-71
2020/12/17 04:49:53;;;;;;;21.58;10.88;;;7.90;99.90;;;;;;4980956;28;20033;-71
2020/12/17 04:52:22;;;;;;;24.42;11.10;;;8.00;99.90;;;;;;4981119;28;20379;-70
2020/12/17 04:54:52;;;;;;;22.35;12.35;;;8.00;99.90;;;;;;4980866;28;20034;-71
2020/12/17 04:57:26;;;;;;;21.40;10.50;;;8.00;99.90;;;;;;4981410;28;20031;-70
2020/12/17 04:59:55;;;;;;;19.98;11.18;;;8.00;99.90;;;;;;4995826;28;20434;-71
2020/12/17 05:02:23;;;;;;;20.52;10.73;;;8.00;99.90;;;;;;4981010;28;20054;-71
2020/12/17 05:04:53;;;;;;;21.95;11.98;;;8.00;99.90;;;;;;4980625;28;20031;-71
2020/12/17 05:07:22;;;;;;;21.00;10.85;;;8.00;99.90;;;;;;4980677;28;20030;-71
2020/12/17 05:09:52;;;;;;;24.42;12.13;;;8.00;99.90;;;;;;4980877;28;20038;-71
2020/12/17 05:12:20;;;;;;;26.83;12.88;;;8.00;99.90;;;;;;4981262;28;20038;-70
2020/12/17 05:14:49;;;;;;;22.60;11.52;;;8.00;99.90;;;;;;4980440;28;20084;-71
2020/12/17 05:17:16;;;;;;;23.02;11.93;;;8.00;99.90;;;;;;4980441;28;20055;-71
2020/12/17 05:19:44;;;;;;;20.40;10.93;;;8.00;99.90;;;;;;4979665;28;20067;-70
2020/12/17 05:22:16;;;;;;;23.17;11.35;;;7.90;99.90;;;;;;4980489;28;20323;-70
2020/12/17 05:24:45;;;;;;;20.20;10.60;;;8.00;99.90;;;;;;4980211;28;20076;-70
2020/12/17 05:27:13;;;;;;;20.80;11.68;;;8.00;99.90;;;;;;4980776;28;20022;-70
2020/12/17 05:29:41;;;;;;;24.15;11.30;;;8.00;99.90;;;;;;4980170;28;20031;-71
2020/12/17 05:32:11;;;;;;;21.85;11.30;;;8.00;99.90;;;;;;4980408;28;20110;-70
2020/12/17 05:34:38;;;;;;;23.13;11.13;;;8.00;99.90;;;;;;4980096;28;20063;-70
2020/12/17 05:37:07;;;;;;;23.85;11.20;;;8.00;99.90;;;;;;4979657;28;20122;-71
2020/12/17 05:39:43;;;;;;;21.83;11.38;;;8.00;99.90;;;;;;4980132;28;20469;-71
2020/12/17 05:42:13;;;;;;;20.17;11.38;;;8.00;99.90;;;;;;4995190;28;20030;-71
2020/12/17 05:44:41;;;;;;;20.52;11.18;;;7.90;99.90;;;;;;4979876;28;20042;-71
2020/12/17 05:47:17;;;;;;;19.90;10.63;;;8.00;99.90;;;;;;4995266;28;20077;-71
2020/12/17 05:49:45;;;;;;;23.83;11.10;;;8.00;99.90;;;;;;4979845;28;20033;-71
2020/12/17 05:52:19;;;;;;;25.90;11.80;;;8.00;99.90;;;;;;4979832;28;20356;-71
2020/12/17 05:54:56;;;;;;;22.67;10.23;;;8.00;99.90;;;;;;4979960;28;20030;-70
2020/12/17 05:57:24;;;;;;;20.58;11.55;;;8.00;99.90;;;;;;4980402;28;20018;-70
2020/12/17 06:00:06;;;;;;;22.45;11.65;;;8.00;99.90;;;;;;4994710;28;20073;-70
2020/12/17 06:02:35;;;;;;;20.90;10.68;;;8.00;99.90;;;;;;4979754;28;20047;-71
2020/12/17 06:05:14;;;;;;;20.15;11.82;;;7.90;99.90;;;;;;4979590;28;20105;-70
2020/12/17 06:07:48;;;;;;;24.05;11.82;;;8.00;99.90;;;;;;4979725;28;20022;-71
2020/12/17 06:10:30;;;;;;;23.98;11.48;;;8.00;99.90;;;;;;4980053;28;20408;-70
2020/12/17 06:13:02;;;;;;;21.77;11.63;;;8.00;99.90;;;;;;4979968;28;20027;-70
2020/12/17 06:15:30;;;;;;;17.45;10.68;;;8.00;99.90;;;;;;4979800;28;20023;-71
2020/12/17 06:17:59;;;;;;;19.75;11.20;;;8.00;99.90;;;;;;4979500;28;20027;-71
2020/12/17 06:20:31;;;;;;;17.42;9.52;;;8.00;99.90;;;;;;4979139;28;20030;-70
2020/12/17 06:23:03;;;;;;;23.02;11.70;;;8.00;99.90;;;;;;4979256;28;20035;-69
2020/12/17 06:25:32;;;;;;;18.25;10.13;;;8.00;99.90;;;;;;4979174;28;20082;-71
2020/12/17 06:28:00;;;;;;;22.70;12.40;;;8.00;99.90;;;;;;4979891;28;20037;-71
2020/12/17 06:30:32;;;;;;;18.30;9.93;;;8.00;99.90;;;;;;4979033;28;20023;-70
2020/12/17 06:33:05;;;;;;;20.55;10.40;;;8.00;99.90;;;;;;4979579;28;20026;-71
2020/12/17 06:35:44;;;;;;;21.17;10.60;;;8.00;99.90;;;;;;4979159;28;20078;-69
2020/12/17 06:38:16;;;;;;;22.10;11.82;;;8.00;99.90;;;;;;4979143;28;20027;-72
2020/12/17 06:40:45;;;;;;;22.40;11.70;;;8.00;99.90;;;;;;4978850;28;20023;-72
2020/12/17 06:43:31;;;;;;;22.75;11.80;;;8.00;99.90;;;;;;4978771;28;20023;-72
2020/12/17 06:46:00;;;;;;;22.67;10.70;;;8.00;99.90;;;;;;4979008;28;20359;-72
2020/12/17 06:48:38;;;;;;;20.45;11.25;;;7.90;99.90;;;;;;4978482;28;20034;-71
2020/12/17 06:51:33;;;;;;;19.15;10.40;;;7.90;99.90;;;;;;4979016;28;20046;-73
2020/12/17 06:54:22;;;;;;;19.52;10.40;;;7.90;99.90;;;;;;4978955;28;20030;-74
2020/12/17 06:57:10;;;;;;;21.60;11.95;;;8.00;99.90;;;;;;4978862;28;20030;-71
2020/12/17 06:59:39;;;;;;;19.15;11.18;;;8.00;99.90;;;;;;4978381;28;20486;-71
2020/12/17 07:02:08;;;;;;;24.77;12.20;;;7.90;99.90;;;;;;4978560;28;20062;-71
2020/12/17 07:04:41;;;;;;;19.88;10.95;;;7.90;99.90;;;;;;4978257;28;20319;-68
2020/12/17 07:07:20;;;;;;;16.55;9.98;;;8.00;99.90;;;;;;4978579;28;20412;-71
2020/12/17 07:09:55;;;;;;;20.58;10.45;;;7.90;99.90;;;;;;4978994;28;20416;-70
2020/12/17 07:12:38;;;;;;;20.53;10.70;;;7.90;99.90;;;;;;4978450;28;20423;-72
2020/12/17 07:15:35;;;;;;;33.13;14.68;;;7.90;99.90;;;;;;4978862;28;20437;-71
2020/12/17 07:18:22;;;;;;;24.50;12.25;;;7.90;99.90;;;;;;4978541;28;20027;-71
2020/12/17 07:21:09;;;;;;;22.00;10.45;;;7.90;99.90;;;;;;4978126;28;20038;-70
2020/12/17 07:23:41;;;;;;;19.20;11.02;;;7.90;99.90;;;;;;4978748;28;20423;-69
2020/12/17 07:26:16;;;;;;;18.30;11.30;;;7.90;99.90;;;;;;4977167;28;20059;-72
2020/12/17 07:28:54;;;;;;;22.25;11.82;;;7.90;99.90;;;;;;4978048;28;20030;-67
2020/12/17 07:31:28;;;;;;;21.63;10.85;;;7.90;99.90;;;;;;4977287;28;20019;-68
2020/12/17 07:33:56;;;;;;;19.27;10.52;;;7.90;99.90;;;;;;4978032;28;20026;-68
2020/12/17 07:36:44;;;;;;;21.27;11.07;;;7.90;99.90;;;;;;4978555;28;20027;-68
2020/12/17 07:39:13;;;;;;;18.02;10.23;;;7.90;99.90;;;;;;4977808;28;20350;-68
2020/12/17 07:41:40;;;;;;;21.75;11.52;;;7.90;99.90;;;;;;4978558;28;20081;-68
2020/12/17 07:44:09;;;;;;;20.00;10.73;;;7.90;99.90;;;;;;4977895;28;20058;-67
2020/12/17 07:46:41;;;;;;;21.85;10.95;;;7.90;99.90;;;;;;4978488;28;20054;-69
2020/12/17 07:49:30;;;;;;;21.65;12.13;;;7.90;99.90;;;;;;4977869;28;20037;-67
2020/12/17 07:51:58;;;;;;;17.25;9.77;;;7.90;99.90;;;;;;4977374;28;20363;-66
2020/12/17 07:54:26;;;;;;;18.98;11.05;;;7.90;99.90;;;;;;4977825;28;20030;-68
2020/12/17 07:57:04;;;;;;;20.05;11.43;;;7.90;99.90;;;;;;4978468;28;20459;-68
2020/12/17 07:59:32;;;;;;;19.15;11.32;;;7.90;99.90;;;;;;4977465;28;20078;-68
2020/12/17 08:02:03;;;;;;;22.70;11.25;;;7.90;99.90;;;;;;4977649;28;20030;-68
2020/12/17 08:04:31;;;;;;;19.95;11.68;;;7.90;99.90;;;;;;4978279;28;20039;-68
2020/12/17 08:07:10;;;;;;;20.10;11.07;;;7.90;99.90;;;;;;4978196;28;20022;-67
2020/12/17 08:09:38;;;;;;;25.40;11.18;;;7.90;99.90;;;;;;4977658;28;20054;-66
2020/12/17 08:12:13;;;;;;;20.35;10.82;;;7.90;99.90;;;;;;4977515;28;20030;-67
2020/12/17 08:14:42;;;;;;;21.57;12.10;;;7.90;99.90;;;;;;4977801;28;20450;-69
2020/12/17 08:17:09;;;;;;;24.30;12.75;;;7.90;99.90;;;;;;4978056;28;20254;-69
2020/12/17 08:19:36;;;;;;;18.52;10.73;;;7.90;99.90;;;;;;4977667;28;20348;-67
2020/12/17 08:22:03;;;;;;;20.13;10.88;;;7.90;99.90;;;;;;4977435;28;20030;-67
2020/12/17 08:24:34;;;;;;;18.17;11.85;;;7.90;99.90;;;;;;4977421;28;20023;-67
2020/12/17 08:27:02;;;;;;;17.63;10.52;;;7.90;99.90;;;;;;4977706;28;20030;-67
2020/12/17 08:29:31;;;;;;;18.08;9.73;;;8.00;99.90;;;;;;4977407;28;20019;-67
2020/12/17 08:31:59;;;;;;;21.48;11.38;;;8.00;99.90;;;;;;4977409;28;20439;-67
2020/12/17 08:34:27;;;;;;;18.60;10.57;;;8.10;99.90;;;;;;4977332;28;20027;-67
2020/12/17 08:36:54;;;;;;;18.45;9.95;;;8.10;99.90;;;;;;4977854;28;20018;-67
2020/12/17 08:39:22;;;;;;;16.35;9.05;;;8.10;99.90;;;;;;4977753;28;20019;-67
2020/12/17 08:41:55;;;;;;;16.33;10.27;;;8.20;99.90;;;;;;4977923;28;20303;-67
2020/12/17 08:44:27;;;;;;;16.00;8.48;;;8.20;99.90;;;;;;4977240;28;20509;-67
2020/12/17 08:47:00;;;;;;;18.10;9.73;;;8.30;99.90;;;;;;4977806;28;20030;-67
2020/12/17 08:49:30;;;;;;;11.15;7.03;;;8.30;99.90;;;;;;4992259;28;20027;-67
2020/12/17 08:51:58;;;;;;;19.50;10.23;;;8.30;99.90;;;;;;4977242;28;20046;-67
2020/12/17 08:54:31;;;;;;;19.55;10.00;;;8.30;99.90;;;;;;4977166;28;20035;-67
2020/12/17 08:57:02;;;;;;;16.85;9.80;;;8.40;99.90;;;;;;4977415;28;20062;-67
2020/12/17 08:59:30;;;;;;;17.98;9.45;;;8.40;99.90;;;;;;4992078;28;20471;-67
2020/12/17 09:01:58;;;;;;;20.45;10.13;;;8.40;99.90;;;;;;4977160;28;20026;-67
2020/12/17 09:04:26;;;;;;;18.42;10.45;;;8.50;99.90;;;;;;4976213;28;20423;-67
2020/12/17 09:06:56;;;;;;;18.35;8.98;;;8.50;99.90;;;;;;4977091;28;20396;-67
2020/12/17 09:09:25;;;;;;;16.50;9.25;;;8.50;99.90;;;;;;4992303;28;20113;-67
2020/12/17 09:11:55;;;;;;;19.08;9.15;;;8.50;99.90;;;;;;4979806;28;20043;-67
2020/12/17 09:14:37;;;;;;;16.08;7.97;;;8.50;99.90;;;;;;4980399;28;20023;-66
2020/12/17 09:17:18;;;;;;;19.70;10.52;;;8.50;99.90;;;;;;4981521;28;20073;-66
2020/12/17 09:19:46;;;;;;;21.05;10.23;;;8.50;99.90;;;;;;4995532;28;20094;-67
2020/12/17 09:22:15;;;;;;;17.17;9.60;;;8.40;99.90;;;;;;4980537;28;20027;-66
2020/12/17 09:24:48;;;;;;;20.38;10.95;;;8.40;99.90;;;;;;4980584;28;20054;-67
2020/12/17 09:27:24;;;;;;;24.05;10.45;;;8.40;99.90;;;;;;4980874;28;20419;-67
2020/12/17 09:30:14;;;;;;;19.00;10.35;;;8.30;99.90;;;;;;4980235;28;20035;-67
2020/12/17 09:32:54;;;;;;;15.20;7.13;;;8.30;99.90;;;;;;4980922;28;20434;-67
2020/12/17 09:35:23;;;;;;;15.02;7.53;;;8.30;99.90;;;;;;4980167;28;20030;-67
2020/12/17 09:38:12;;;;;;;18.65;10.65;;;8.20;99.90;;;;;;4980103;28;20117;-67
2020/12/17 09:40:42;;;;;;;22.70;11.18;;;8.20;99.90;;;;;;4979890;28;20110;-68
2020/12/17 09:43:16;;;;;;;14.70;8.93;;;8.20;99.90;;;;;;4980401;28;20039;-67
2020/12/17 09:45:45;;;;;;;18.20;10.90;;;8.20;99.90;;;;;;4979792;28;20030;-67
2020/12/17 09:48:21;;;;;;;17.00;9.75;;;8.20;99.90;;;;;;4996103;28;20033;-67
2020/12/17 09:50:56;;;;;;;19.45;10.25;;;8.20;99.90;;;;;;4979883;28;20023;-67
2020/12/17 09:53:24;;;;;;;21.80;9.02;;;8.20;99.90;;;;;;4980359;28;20035;-67
2020/12/17 09:55:53;;;;;;;18.85;10.15;;;8.20;99.90;;;;;;4979329;28;20033;-67
2020/12/17 09:58:20;;;;;;;21.15;10.25;;;8.20;99.90;;;;;;4979900;28;20027;-67
2020/12/17 10:00:48;;;;;;;16.48;10.10;;;8.20;99.90;;;;;;4979540;28;20085;-67
2020/12/17 10:03:16;;;;;;;21.67;11.50;;;8.20;99.90;;;;;;4979514;28;20117;-67
2020/12/17 10:05:44;;;;;;;17.77;9.55;;;8.20;99.90;;;;;;4978879;28;20021;-67
2020/12/17 10:08:11;;;;;;;16.48;8.60;;;8.20;99.90;;;;;;4978778;28;20031;-67
2020/12/17 10:10:39;;;;;;;21.67;10.50;;;8.20;99.90;;;;;;4979817;28;20420;-67
2020/12/17 10:13:09;;;;;;;13.57;7.78;;;8.20;99.90;;;;;;4979499;28;20034;-67
2020/12/17 10:15:38;;;;;;;19.38;10.27;;;8.30;99.90;;;;;;4979413;28;20019;-67
2020/12/17 10:18:05;;;;;;;18.00;9.32;;;8.30;99.90;;;;;;4979529;28;20027;-67
2020/12/17 10:20:33;;;;;;;15.70;10.32;;;8.30;99.90;;;;;;4979802;28;20034;-67
2020/12/17 10:23:01;;;;;;;19.38;9.30;;;8.30;99.90;;;;;;4978436;28;20434;-67
2020/12/17 10:25:28;;;;;;;19.80;9.98;;;8.30;99.90;;;;;;4979498;28;20027;-67
2020/12/17 10:27:58;;;;;;;18.23;9.68;;;8.40;99.90;;;;;;4979626;28;20105;-67
2020/12/17 10:30:27;;;;;;;17.23;9.43;;;8.40;99.90;;;;;;4980115;28;20133;-67
2020/12/17 10:32:57;;;;;;;15.00;8.20;;;8.40;99.90;;;;;;4979285;28;20026;-67
2020/12/17 10:35:25;;;;;;;15.10;9.48;;;8.50;99.90;;;;;;4978882;28;20038;-67
2020/12/17 10:37:53;;;;;;;17.75;9.48;;;8.50;99.90;;;;;;4979129;28;20033;-67
2020/12/17 10:40:20;;;;;;;15.80;8.52;;;8.50;99.90;;;;;;4978831;28;20023;-67
2020/12/17 10:42:48;;;;;;;14.80;9.25;;;8.50;99.90;;;;;;4978858;28;20019;-67
2020/12/17 10:45:17;;;;;;;15.90;8.95;;;8.60;99.90;;;;;;4978783;28;20046;-67
2020/12/17 10:47:44;;;;;;;13.73;6.50;;;8.60;99.90;;;;;;4978986;28;20315;-68
2020/12/17 10:50:11;;;;;;;13.40;7.88;;;8.60;99.90;;;;;;4979310;28;20026;-67
2020/12/17 10:52:40;;;;;;;14.75;8.73;;;8.70;99.90;;;;;;4978969;28;20047;-68
2020/12/17 10:55:07;;;;;;;13.77;7.82;;;8.70;99.90;;;;;;4978632;28;20038;-65
2020/12/17 10:57:35;;;;;;;13.27;7.68;;;8.70;99.90;;;;;;4977682;28;20031;-67
2020/12/17 11:00:05;;;;;;;15.25;8.57;;;8.70;99.90;;;;;;4978440;28;20074;-68
2020/12/17 11:02:33;;;;;;;16.20;8.88;;;8.80;99.90;;;;;;4978395;28;20081;-67
2020/12/17 11:05:01;;;;;;;14.18;7.28;;;8.80;99.90;;;;;;4978510;28;20030;-67
2020/12/17 11:07:29;;;;;;;12.30;7.78;;;8.80;99.90;;;;;;4977556;28;20098;-67
2020/12/17 11:09:58;;;;;;;14.15;7.93;;;8.90;99.90;;;;;;4978342;28;20093;-67
2020/12/17 11:12:26;;;;;;;11.38;6.93;;;9.00;99.90;;;;;;4978978;28;20031;-67
2020/12/17 11:14:54;;;;;;;10.70;6.47;;;9.00;99.90;;;;;;4978232;28;20034;-68
2020/12/17 11:17:23;;;;;;;10.98;6.60;;;9.10;99.90;;;;;;4978274;28;20101;-68
2020/12/17 11:19:51;;;;;;;10.23;5.90;;;9.20;99.90;;;;;;4978122;28;20035;-68
2020/12/17 11:22:19;;;;;;;10.75;5.32;;;9.20;99.90;;;;;;4978373;28;20061;-67
2020/12/17 11:24:46;;;;;;;7.13;4.95;;;9.20;99.90;;;;;;4978226;28;20019;-66
2020/12/17 11:27:14;;;;;;;8.68;4.70;;;9.30;99.90;;;;;;4978405;28;20030;-66
2020/12/17 11:29:41;;;;;;;7.47;4.55;;;9.40;99.90;;;;;;4977926;28;20033;-67
2020/12/17 11:32:09;;;;;;;8.73;4.45;;;9.50;99.90;;;;;;4978108;28;20027;-68
2020/12/17 11:34:36;;;;;;;7.43;3.95;;;9.60;99.90;;;;;;4978156;28;20029;-67
2020/12/17 11:37:04;;;;;;;7.88;3.50;;;9.60;99.90;;;;;;4993186;28;20423;-68
2020/12/17 11:39:32;;;;;;;5.63;3.10;;;9.70;99.90;;;;;;4977851;28;20023;-67
2020/12/17 11:41:59;;;;;;;7.05;4.45;;;9.70;99.90;;;;;;4978136;28;20023;-68
2020/12/17 11:44:27;;;;;;;6.65;3.42;;;9.70;99.90;;;;;;4977817;28;20023;-68
2020/12/17 11:46:55;;;;;;;6.15;3.40;;;9.60;99.90;;;;;;4978277;28;20434;-67
2020/12/17 11:49:22;;;;;;;5.25;3.03;;;9.60;99.90;;;;;;4977749;28;20026;-67
2020/12/17 11:51:53;;;;;;;5.40;3.30;;;9.60;99.90;;;;;;4977875;28;20026;-67
2020/12/17 11:54:21;;;;;;;5.22;3.30;;;9.50;99.90;;;;;;4977718;28;20034;-67
2020/12/17 11:56:53;;;;;;;4.47;2.85;;;9.50;99.90;;;;;;4977831;28;20105;-67
2020/12/17 11:59:21;;;;;;;5.22;3.10;;;9.50;99.90;;;;;;4977663;28;20035;-67
2020/12/17 12:01:51;;;;;;;4.28;2.78;;;9.50;99.90;;;;;;4978117;28;20033;-67
2020/12/17 12:04:18;;;;;;;8.23;2.60;;;9.50;99.90;;;;;;4977757;28;20030;-67
2020/12/17 12:06:49;;;;;;;4.75;2.67;;;9.60;99.90;;;;;;4977018;28;20324;-67
2020/12/17 12:09:20;;;;;;;5.45;2.88;;;9.70;99.90;;;;;;4977612;28;20407;-67
2020/12/17 12:11:54;;;;;;;5.55;2.90;;;9.70;99.90;;;;;;4978211;28;20297;-67
2020/12/17 12:14:22;;;;;;;6.82;2.97;;;9.80;99.90;;;;;;4977527;28;20054;-67
2020/12/17 12:16:51;;;;;;;5.43;2.40;;;9.80;99.90;;;;;;4993003;28;20438;-67
2020/12/17 12:19:18;;;;;;;4.25;2.50;;;9.90;99.90;;;;;;4977675;28;20427;-67
2020/12/17 12:21:51;;;;;;;4.35;2.50;;;9.90;99.90;;;;;;4977949;28;20085;-65
2020/12/17 12:24:19;;;;;;;3.30;2.03;;;9.90;99.90;;;;;;4977585;28;20089;-65
2020/12/17 12:26:51;;;;;;;6.47;2.60;;;9.90;99.90;;;;;;4977743;28;20423;-65
2020/12/17 12:29:18;;;;;;;5.50;2.50;;;9.90;99.90;;;;;;4977425;28;20023;-65
2020/12/17 12:31:52;;;;;;;3.50;2.05;;;9.90;99.90;;;;;;4977467;28;20023;-65
2020/12/17 12:34:20;;;;;;;7.57;2.08;;;9.90;99.90;;;;;;4978523;28;20289;-65
2020/12/17 12:36:51;;;;;;;3.42;2.15;;;9.90;99.90;;;;;;4977971;28;20033;-65
2020/12/17 12:39:19;;;;;;;4.15;2.15;;;9.90;99.90;;;;;;4977387;28;20019;-65
2020/12/17 12:41:48;;;;;;;3.75;2.03;;;9.90;99.90;;;;;;4977277;28;20030;-65
2020/12/17 12:44:16;;;;;;;6.38;2.22;;;9.80;99.90;;;;;;4992486;28;20026;-65
2020/12/17 12:46:49;;;;;;;4.10;2.22;;;9.90;99.90;;;;;;4995220;28;20113;-67
2020/12/17 12:49:17;;;;;;;3.28;1.75;;;9.80;99.90;;;;;;4981111;28;20101;-67
2020/12/17 12:51:48;;;;;;;5.63;1.98;;;9.80;99.90;;;;;;4981540;28;20107;-67
2020/12/17 12:54:15;;;;;;;4.32;2.15;;;9.80;99.90;;;;;;4996143;28;20077;-67